Perham, MN (56573)

2:47 PM CDT on July 28, 2016 (GMT -0500)
Flatau Long Lake | | Change Station

Elev 1365 ft 46.66 °N, 95.73 °W | Updated 6 seconds ago

Scattered Clouds
Scattered Clouds
75.0 °F
Feels Like 78 °F
N
0.0
Wind Variable Wind from WSW
Gusts 0.0 mph

Today
High -- | Low -- °F
--% Chance of Precip.
Yesterday
High -- | Low -- °F
Precip. -- in
Pressure 30.07 in
Visibility 10.0 miles
Clouds Scattered Clouds 4600 ft
Heat Index 78 °F
Dew Point 58 °F
Humidity 56%
Rainfall 0.00 in
Snow Depth Not available.
5:58 AM 8:58 PM
Waning Crescent, 29% visible
METAR KADC 281935Z AUTO 09005KT 10SM SCT046 24/14 A3007 RMK AO2
Pressure 30.07 in
Visibility 10.0 miles
Clouds Scattered Clouds 4600 ft
Heat Index 78 °F
Dew Point 58 °F
Humidity 56%
Rainfall 0.00 in
Snow Depth Not available.
5:58 AM 8:58 PM
Waning Crescent, 29% visible
METAR KADC 281935Z AUTO 09005KT 10SM SCT046 24/14 A3007 RMK AO2

10-Day Weather Forecast

Almanac

Astronomy

Jul. 28, 2016 Rise Set
Actual Time
Civil Twilight
Nautical Twilight
Astronomical Twilight
Moon
Length of Visible Light
Length of Day
Tomorrow will be .
, % of the Moon is Illuminated

Today's Extremes

State Highs State Lows

Community

WunderPhotos

Upload Photos

1,928,194 photos uploaded!

WunderBlog® & News

Nearby

Air Quality

  Air Quality AQ Index Pollutant
Not available.

Snow Depth

Station Depth Elevation

Earthquake Activity

City Distance Mag. Time & Date
Minimum magnitude displayed is 2.5.

Coastal Water Temperatures

Place Temperature

Stations

Nearby Weather Stations

Station Location Temp. Windchill Dew Point Humidity Wind Precip. Elev Updated Type
                   

Watches & Warnings

There are currently no watches in effect.